sensor_id;sensor_type;location;lat;lon;timestamp;P1;durP1;ratioP1;P2;durP2;ratioP2
56081;SDS011;41957;52.060;5.138;2022-12-18T00:00:59;26.92;;;14.20;;
56081;SDS011;41957;52.060;5.138;2022-12-18T00:03:24;28.00;;;14.38;;
56081;SDS011;41957;52.060;5.138;2022-12-18T00:05:50;26.75;;;13.18;;
56081;SDS011;41957;52.060;5.138;2022-12-18T00:08:17;31.00;;;14.68;;
56081;SDS011;41957;52.060;5.138;2022-12-18T00:10:42;25.65;;;13.98;;
56081;SDS011;41957;52.060;5.138;2022-12-18T00:13:08;26.40;;;13.98;;
56081;SDS011;41957;52.060;5.138;2022-12-18T00:15:34;24.60;;;13.15;;
56081;SDS011;41957;52.060;5.138;2022-12-18T00:18:00;27.17;;;13.93;;
56081;SDS011;41957;52.060;5.138;2022-12-18T00:20:25;26.70;;;13.90;;
56081;SDS011;41957;52.060;5.138;2022-12-18T00:22:51;27.73;;;14.32;;
56081;SDS011;41957;52.060;5.138;2022-12-18T00:25:17;25.42;;;13.88;;
56081;SDS011;41957;52.060;5.138;2022-12-18T00:27:43;25.80;;;13.20;;
56081;SDS011;41957;52.060;5.138;2022-12-18T00:30:09;27.77;;;14.45;;
56081;SDS011;41957;52.060;5.138;2022-12-18T00:32:35;25.75;;;12.98;;
56081;SDS011;41957;52.060;5.138;2022-12-18T00:35:00;27.30;;;13.88;;
56081;SDS011;41957;52.060;5.138;2022-12-18T00:37:26;27.40;;;13.25;;
56081;SDS011;41957;52.060;5.138;2022-12-18T00:39:51;26.58;;;13.98;;
56081;SDS011;41957;52.060;5.138;2022-12-18T00:42:16;25.77;;;13.98;;
56081;SDS011;41957;52.060;5.138;2022-12-18T00:45:00;26.60;;;14.52;;
56081;SDS011;41957;52.060;5.138;2022-12-18T00:47:26;26.48;;;14.23;;
56081;SDS011;41957;52.060;5.138;2022-12-18T00:49:51;26.85;;;14.95;;
56081;SDS011;41957;52.060;5.138;2022-12-18T00:52:16;27.40;;;13.65;;
56081;SDS011;41957;52.060;5.138;2022-12-18T00:54:42;28.83;;;13.75;;
56081;SDS011;41957;52.060;5.138;2022-12-18T00:57:07;28.35;;;13.55;;
56081;SDS011;41957;52.060;5.138;2022-12-18T00:59:32;26.85;;;13.90;;
56081;SDS011;41957;52.060;5.138;2022-12-18T01:01:58;27.70;;;13.52;;
56081;SDS011;41957;52.060;5.138;2022-12-18T01:04:23;25.85;;;14.18;;
56081;SDS011;41957;52.060;5.138;2022-12-18T01:06:49;26.25;;;13.80;;
56081;SDS011;41957;52.060;5.138;2022-12-18T01:09:14;27.15;;;13.57;;
56081;SDS011;41957;52.060;5.138;2022-12-18T01:11:40;28.23;;;14.40;;
56081;SDS011;41957;52.060;5.138;2022-12-18T01:14:05;26.33;;;13.63;;
56081;SDS011;41957;52.060;5.138;2022-12-18T01:16:31;28.65;;;14.00;;
56081;SDS011;41957;52.060;5.138;2022-12-18T01:18:56;29.27;;;14.25;;
56081;SDS011;41957;52.060;5.138;2022-12-18T01:21:22;26.17;;;14.02;;
56081;SDS011;41957;52.060;5.138;2022-12-18T01:23:52;27.27;;;13.10;;
56081;SDS011;41957;52.060;5.138;2022-12-18T01:26:18;28.00;;;13.77;;
56081;SDS011;41957;52.060;5.138;2022-12-18T01:28:44;26.20;;;13.82;;
56081;SDS011;41957;52.060;5.138;2022-12-18T01:34:04;27.33;;;13.93;;
56081;SDS011;41957;52.060;5.138;2022-12-18T01:36:31;26.95;;;13.80;;
56081;SDS011;41957;52.060;5.138;2022-12-18T01:39:05;26.50;;;13.70;;
56081;SDS011;41957;52.060;5.138;2022-12-18T01:41:32;25.30;;;13.35;;
56081;SDS011;41957;52.060;5.138;2022-12-18T01:47:38;25.98;;;13.32;;
56081;SDS011;41957;52.060;5.138;2022-12-18T01:50:08;26.92;;;13.75;;
56081;SDS011;41957;52.060;5.138;2022-12-18T01:55:20;26.88;;;14.52;;
56081;SDS011;41957;52.060;5.138;2022-12-18T01:57:49;27.80;;;13.65;;
56081;SDS011;41957;52.060;5.138;2022-12-18T02:00:19;27.88;;;13.30;;
56081;SDS011;41957;52.060;5.138;2022-12-18T02:02:47;28.08;;;14.13;;
56081;SDS011;41957;52.060;5.138;2022-12-18T02:05:14;27.88;;;13.73;;
56081;SDS011;41957;52.060;5.138;2022-12-18T02:17:56;30.63;;;14.88;;
56081;SDS011;41957;52.060;5.138;2022-12-18T02:23:13;23.83;;;11.13;;
56081;SDS011;41957;52.060;5.138;2022-12-18T02:28:32;29.42;;;14.48;;
56081;SDS011;41957;52.060;5.138;2022-12-18T02:31:02;26.98;;;13.32;;
56081;SDS011;41957;52.060;5.138;2022-12-18T02:33:31;29.33;;;15.23;;
56081;SDS011;41957;52.060;5.138;2022-12-18T02:35:59;28.25;;;14.48;;
56081;SDS011;41957;52.060;5.138;2022-12-18T02:38:26;30.60;;;15.05;;
56081;SDS011;41957;52.060;5.138;2022-12-18T02:40:54;29.60;;;13.80;;
56081;SDS011;41957;52.060;5.138;2022-12-18T02:43:20;28.25;;;13.82;;
56081;SDS011;41957;52.060;5.138;2022-12-18T02:45:52;26.67;;;14.25;;
56081;SDS011;41957;52.060;5.138;2022-12-18T02:48:23;29.70;;;13.98;;
56081;SDS011;41957;52.060;5.138;2022-12-18T02:51:00;29.40;;;13.93;;
56081;SDS011;41957;52.060;5.138;2022-12-18T02:53:35;29.73;;;14.90;;
56081;SDS011;41957;52.060;5.138;2022-12-18T02:56:15;29.70;;;15.55;;
56081;SDS011;41957;52.060;5.138;2022-12-18T02:58:56;28.92;;;15.52;;
56081;SDS011;41957;52.060;5.138;2022-12-18T03:06:59;28.55;;;15.52;;
56081;SDS011;41957;52.060;5.138;2022-12-18T03:09:29;30.55;;;15.07;;
56081;SDS011;41957;52.060;5.138;2022-12-18T03:12:03;28.73;;;14.85;;
56081;SDS011;41957;52.060;5.138;2022-12-18T03:14:50;31.73;;;14.48;;
56081;SDS011;41957;52.060;5.138;2022-12-18T03:17:21;31.58;;;15.65;;
56081;SDS011;41957;52.060;5.138;2022-12-18T03:19:50;27.15;;;13.63;;
56081;SDS011;41957;52.060;5.138;2022-12-18T03:22:18;26.77;;;13.15;;
56081;SDS011;41957;52.060;5.138;2022-12-18T03:24:46;28.80;;;13.80;;
56081;SDS011;41957;52.060;5.138;2022-12-18T03:27:14;29.17;;;14.30;;
56081;SDS011;41957;52.060;5.138;2022-12-18T03:29:44;26.55;;;13.82;;
56081;SDS011;41957;52.060;5.138;2022-12-18T03:32:23;26.83;;;13.05;;
56081;SDS011;41957;52.060;5.138;2022-12-18T03:34:54;28.85;;;14.35;;
56081;SDS011;41957;52.060;5.138;2022-12-18T03:37:25;28.30;;;14.55;;
56081;SDS011;41957;52.060;5.138;2022-12-18T03:39:50;27.77;;;12.63;;
56081;SDS011;41957;52.060;5.138;2022-12-18T03:48:02;26.10;;;13.03;;
56081;SDS011;41957;52.060;5.138;2022-12-18T03:55:51;24.88;;;11.48;;
56081;SDS011;41957;52.060;5.138;2022-12-18T03:58:17;25.52;;;12.60;;
56081;SDS011;41957;52.060;5.138;2022-12-18T04:00:47;27.77;;;13.27;;
56081;SDS011;41957;52.060;5.138;2022-12-18T04:03:15;29.10;;;13.57;;
56081;SDS011;41957;52.060;5.138;2022-12-18T04:05:44;29.60;;;14.18;;
56081;SDS011;41957;52.060;5.138;2022-12-18T04:08:10;27.98;;;12.50;;
56081;SDS011;41957;52.060;5.138;2022-12-18T04:10:37;26.15;;;12.65;;
56081;SDS011;41957;52.060;5.138;2022-12-18T04:13:02;27.90;;;12.93;;
56081;SDS011;41957;52.060;5.138;2022-12-18T04:15:28;22.67;;;12.18;;
56081;SDS011;41957;52.060;5.138;2022-12-18T04:17:53;25.75;;;12.65;;
56081;SDS011;41957;52.060;5.138;2022-12-18T04:20:18;25.35;;;13.85;;
56081;SDS011;41957;52.060;5.138;2022-12-18T04:22:44;27.30;;;13.07;;
56081;SDS011;41957;52.060;5.138;2022-12-18T04:25:09;27.27;;;13.35;;
56081;SDS011;41957;52.060;5.138;2022-12-18T04:27:36;26.10;;;13.57;;
56081;SDS011;41957;52.060;5.138;2022-12-18T04:30:01;31.23;;;13.27;;
56081;SDS011;41957;52.060;5.138;2022-12-18T04:32:26;24.88;;;11.50;;
56081;SDS011;41957;52.060;5.138;2022-12-18T04:34:52;24.50;;;11.93;;
56081;SDS011;41957;52.060;5.138;2022-12-18T04:37:17;24.60;;;12.93;;
56081;SDS011;41957;52.060;5.138;2022-12-18T04:39:42;27.23;;;12.48;;
56081;SDS011;41957;52.060;5.138;2022-12-18T04:42:08;25.17;;;12.15;;
56081;SDS011;41957;52.060;5.138;2022-12-18T04:44:33;24.63;;;12.02;;
56081;SDS011;41957;52.060;5.138;2022-12-18T04:46:59;28.10;;;12.85;;
56081;SDS011;41957;52.060;5.138;2022-12-18T04:49:24;26.30;;;12.60;;
56081;SDS011;41957;52.060;5.138;2022-12-18T04:51:49;27.48;;;12.00;;
56081;SDS011;41957;52.060;5.138;2022-12-18T04:54:15;23.75;;;10.88;;
56081;SDS011;41957;52.060;5.138;2022-12-18T04:56:40;29.38;;;13.07;;
56081;SDS011;41957;52.060;5.138;2022-12-18T04:59:06;24.58;;;11.57;;
56081;SDS011;41957;52.060;5.138;2022-12-18T05:01:31;24.83;;;11.52;;
56081;SDS011;41957;52.060;5.138;2022-12-18T05:03:56;22.55;;;10.57;;
56081;SDS011;41957;52.060;5.138;2022-12-18T05:06:22;26.70;;;11.95;;
56081;SDS011;41957;52.060;5.138;2022-12-18T05:08:47;21.63;;;10.77;;
56081;SDS011;41957;52.060;5.138;2022-12-18T05:11:13;21.73;;;10.75;;
56081;SDS011;41957;52.060;5.138;2022-12-18T05:13:40;24.30;;;10.98;;
56081;SDS011;41957;52.060;5.138;2022-12-18T05:16:07;22.77;;;10.70;;
56081;SDS011;41957;52.060;5.138;2022-12-18T05:18:32;24.35;;;11.48;;
56081;SDS011;41957;52.060;5.138;2022-12-18T05:20:58;23.98;;;10.90;;
56081;SDS011;41957;52.060;5.138;2022-12-18T05:23:24;23.65;;;11.10;;
56081;SDS011;41957;52.060;5.138;2022-12-18T05:25:53;22.92;;;10.68;;
56081;SDS011;41957;52.060;5.138;2022-12-18T05:28:20;22.58;;;11.55;;
56081;SDS011;41957;52.060;5.138;2022-12-18T05:30:49;18.42;;;9.65;;
56081;SDS011;41957;52.060;5.138;2022-12-18T05:33:16;20.55;;;9.98;;
56081;SDS011;41957;52.060;5.138;2022-12-18T05:35:42;21.13;;;10.00;;
56081;SDS011;41957;52.060;5.138;2022-12-18T05:38:08;22.55;;;10.88;;
56081;SDS011;41957;52.060;5.138;2022-12-18T05:40:33;22.02;;;10.90;;
56081;SDS011;41957;52.060;5.138;2022-12-18T05:42:59;21.20;;;9.20;;
56081;SDS011;41957;52.060;5.138;2022-12-18T05:45:24;18.92;;;9.13;;
56081;SDS011;41957;52.060;5.138;2022-12-18T05:47:49;22.35;;;10.73;;
56081;SDS011;41957;52.060;5.138;2022-12-18T05:50:15;22.40;;;9.98;;
56081;SDS011;41957;52.060;5.138;2022-12-18T05:52:40;22.00;;;10.35;;
56081;SDS011;41957;52.060;5.138;2022-12-18T05:55:06;21.77;;;11.05;;
56081;SDS011;41957;52.060;5.138;2022-12-18T05:57:31;20.25;;;9.68;;
56081;SDS011;41957;52.060;5.138;2022-12-18T05:59:57;22.33;;;10.00;;
56081;SDS011;41957;52.060;5.138;2022-12-18T06:02:22;20.10;;;9.85;;
56081;SDS011;41957;52.060;5.138;2022-12-18T06:04:47;20.30;;;9.85;;
56081;SDS011;41957;52.060;5.138;2022-12-18T06:07:13;20.88;;;10.02;;
56081;SDS011;41957;52.060;5.138;2022-12-18T06:09:38;19.08;;;9.73;;
56081;SDS011;41957;52.060;5.138;2022-12-18T06:12:03;21.45;;;10.13;;
56081;SDS011;41957;52.060;5.138;2022-12-18T06:14:29;20.55;;;10.48;;
56081;SDS011;41957;52.060;5.138;2022-12-18T06:16:54;20.95;;;9.88;;
56081;SDS011;41957;52.060;5.138;2022-12-18T06:19:19;18.85;;;9.65;;
56081;SDS011;41957;52.060;5.138;2022-12-18T06:21:45;19.52;;;10.10;;
56081;SDS011;41957;52.060;5.138;2022-12-18T06:24:10;20.67;;;9.38;;
56081;SDS011;41957;52.060;5.138;2022-12-18T06:26:38;17.63;;;9.05;;
56081;SDS011;41957;52.060;5.138;2022-12-18T06:29:04;19.13;;;9.55;;
56081;SDS011;41957;52.060;5.138;2022-12-18T06:31:30;19.58;;;9.38;;
56081;SDS011;41957;52.060;5.138;2022-12-18T06:33:56;19.38;;;9.18;;
56081;SDS011;41957;52.060;5.138;2022-12-18T06:36:21;18.95;;;9.85;;
56081;SDS011;41957;52.060;5.138;2022-12-18T06:38:47;18.90;;;9.73;;
56081;SDS011;41957;52.060;5.138;2022-12-18T06:41:13;18.35;;;9.57;;
56081;SDS011;41957;52.060;5.138;2022-12-18T06:43:40;19.27;;;9.65;;
56081;SDS011;41957;52.060;5.138;2022-12-18T06:46:05;18.42;;;9.23;;
56081;SDS011;41957;52.060;5.138;2022-12-18T06:48:31;18.92;;;9.77;;
56081;SDS011;41957;52.060;5.138;2022-12-18T06:50:58;19.30;;;8.80;;
56081;SDS011;41957;52.060;5.138;2022-12-18T06:53:23;17.30;;;8.82;;
56081;SDS011;41957;52.060;5.138;2022-12-18T06:55:49;18.63;;;8.20;;
56081;SDS011;41957;52.060;5.138;2022-12-18T06:58:14;18.33;;;8.93;;
56081;SDS011;41957;52.060;5.138;2022-12-18T07:00:40;17.85;;;9.23;;
56081;SDS011;41957;52.060;5.138;2022-12-18T07:03:06;19.70;;;8.90;;
56081;SDS011;41957;52.060;5.138;2022-12-18T07:05:31;19.63;;;8.75;;
56081;SDS011;41957;52.060;5.138;2022-12-18T07:07:57;17.02;;;8.77;;
56081;SDS011;41957;52.060;5.138;2022-12-18T07:10:23;16.73;;;8.13;;
56081;SDS011;41957;52.060;5.138;2022-12-18T07:12:48;17.27;;;9.00;;
56081;SDS011;41957;52.060;5.138;2022-12-18T07:15:13;18.73;;;8.05;;
56081;SDS011;41957;52.060;5.138;2022-12-18T07:17:39;18.35;;;8.60;;
56081;SDS011;41957;52.060;5.138;2022-12-18T07:20:04;17.35;;;8.15;;
56081;SDS011;41957;52.060;5.138;2022-12-18T07:22:30;19.13;;;8.65;;
56081;SDS011;41957;52.060;5.138;2022-12-18T07:24:55;16.52;;;7.70;;
56081;SDS011;41957;52.060;5.138;2022-12-18T07:27:21;18.38;;;9.20;;
56081;SDS011;41957;52.060;5.138;2022-12-18T07:29:47;17.83;;;8.35;;
56081;SDS011;41957;52.060;5.138;2022-12-18T07:32:12;17.00;;;7.78;;
56081;SDS011;41957;52.060;5.138;2022-12-18T07:34:38;17.55;;;8.70;;
56081;SDS011;41957;52.060;5.138;2022-12-18T07:37:03;16.83;;;7.85;;
56081;SDS011;41957;52.060;5.138;2022-12-18T07:39:28;18.15;;;8.80;;
56081;SDS011;41957;52.060;5.138;2022-12-18T07:41:54;18.40;;;8.70;;
56081;SDS011;41957;52.060;5.138;2022-12-18T07:44:37;18.35;;;8.88;;
56081;SDS011;41957;52.060;5.138;2022-12-18T07:47:03;18.77;;;8.25;;
56081;SDS011;41957;52.060;5.138;2022-12-18T07:49:29;19.20;;;8.57;;
56081;SDS011;41957;52.060;5.138;2022-12-18T07:51:55;17.70;;;8.27;;
56081;SDS011;41957;52.060;5.138;2022-12-18T07:54:21;15.68;;;8.10;;
56081;SDS011;41957;52.060;5.138;2022-12-18T07:56:47;16.95;;;8.02;;
56081;SDS011;41957;52.060;5.138;2022-12-18T07:59:12;16.17;;;8.30;;
56081;SDS011;41957;52.060;5.138;2022-12-18T08:01:37;17.75;;;8.68;;
56081;SDS011;41957;52.060;5.138;2022-12-18T08:04:03;18.88;;;8.63;;
56081;SDS011;41957;52.060;5.138;2022-12-18T08:06:28;16.10;;;8.10;;
56081;SDS011;41957;52.060;5.138;2022-12-18T08:08:54;17.48;;;8.30;;
56081;SDS011;41957;52.060;5.138;2022-12-18T08:11:21;16.63;;;7.30;;
56081;SDS011;41957;52.060;5.138;2022-12-18T08:13:47;15.82;;;6.95;;
56081;SDS011;41957;52.060;5.138;2022-12-18T08:16:13;16.88;;;8.13;;
56081;SDS011;41957;52.060;5.138;2022-12-18T08:18:38;15.60;;;7.28;;
56081;SDS011;41957;52.060;5.138;2022-12-18T08:21:07;15.50;;;7.28;;
56081;SDS011;41957;52.060;5.138;2022-12-18T08:23:34;15.10;;;7.00;;
56081;SDS011;41957;52.060;5.138;2022-12-18T08:25:59;13.93;;;6.20;;
56081;SDS011;41957;52.060;5.138;2022-12-18T08:28:24;15.20;;;6.72;;
56081;SDS011;41957;52.060;5.138;2022-12-18T08:30:53;15.48;;;7.63;;
56081;SDS011;41957;52.060;5.138;2022-12-18T08:33:18;15.82;;;7.20;;
56081;SDS011;41957;52.060;5.138;2022-12-18T08:35:43;14.38;;;6.30;;
56081;SDS011;41957;52.060;5.138;2022-12-18T08:38:09;15.50;;;7.15;;
56081;SDS011;41957;52.060;5.138;2022-12-18T08:40:34;16.42;;;6.80;;
56081;SDS011;41957;52.060;5.138;2022-12-18T08:42:59;17.17;;;8.43;;
56081;SDS011;41957;52.060;5.138;2022-12-18T08:45:43;16.90;;;7.85;;
56081;SDS011;41957;52.060;5.138;2022-12-18T08:48:08;15.90;;;8.02;;
56081;SDS011;41957;52.060;5.138;2022-12-18T08:50:34;17.35;;;7.97;;
56081;SDS011;41957;52.060;5.138;2022-12-18T08:52:59;15.20;;;8.00;;
56081;SDS011;41957;52.060;5.138;2022-12-18T08:55:25;16.98;;;7.93;;
56081;SDS011;41957;52.060;5.138;2022-12-18T08:57:50;16.23;;;7.60;;
56081;SDS011;41957;52.060;5.138;2022-12-18T09:00:16;15.80;;;7.25;;
56081;SDS011;41957;52.060;5.138;2022-12-18T09:02:41;14.30;;;6.60;;
56081;SDS011;41957;52.060;5.138;2022-12-18T09:05:07;14.38;;;6.50;;
56081;SDS011;41957;52.060;5.138;2022-12-18T09:07:32;14.82;;;6.72;;
56081;SDS011;41957;52.060;5.138;2022-12-18T09:09:58;12.70;;;5.43;;
56081;SDS011;41957;52.060;5.138;2022-12-18T09:12:23;14.77;;;6.85;;
56081;SDS011;41957;52.060;5.138;2022-12-18T09:14:48;14.35;;;6.50;;
56081;SDS011;41957;52.060;5.138;2022-12-18T09:17:13;15.32;;;6.50;;
56081;SDS011;41957;52.060;5.138;2022-12-18T09:19:39;14.18;;;6.60;;
56081;SDS011;41957;52.060;5.138;2022-12-18T09:22:05;14.98;;;6.13;;
56081;SDS011;41957;52.060;5.138;2022-12-18T09:24:30;13.10;;;5.95;;
56081;SDS011;41957;52.060;5.138;2022-12-18T09:26:55;15.10;;;6.00;;
56081;SDS011;41957;52.060;5.138;2022-12-18T09:29:21;14.48;;;6.63;;
56081;SDS011;41957;52.060;5.138;2022-12-18T09:31:47;13.80;;;5.80;;
56081;SDS011;41957;52.060;5.138;2022-12-18T09:34:12;14.63;;;6.55;;
56081;SDS011;41957;52.060;5.138;2022-12-18T09:36:38;15.52;;;7.22;;
56081;SDS011;41957;52.060;5.138;2022-12-18T09:39:03;16.05;;;7.10;;
56081;SDS011;41957;52.060;5.138;2022-12-18T09:44:10;15.52;;;7.78;;
56081;SDS011;41957;52.060;5.138;2022-12-18T09:46:44;14.85;;;7.82;;
56081;SDS011;41957;52.060;5.138;2022-12-18T09:49:17;14.70;;;7.28;;
56081;SDS011;41957;52.060;5.138;2022-12-18T09:51:47;14.85;;;7.93;;
56081;SDS011;41957;52.060;5.138;2022-12-18T09:54:35;15.57;;;7.85;;
56081;SDS011;41957;52.060;5.138;2022-12-18T09:57:04;15.27;;;7.13;;
56081;SDS011;41957;52.060;5.138;2022-12-18T09:59:32;17.33;;;7.60;;
56081;SDS011;41957;52.060;5.138;2022-12-18T10:02:11;15.15;;;7.78;;
56081;SDS011;41957;52.060;5.138;2022-12-18T10:04:41;15.27;;;6.95;;
56081;SDS011;41957;52.060;5.138;2022-12-18T10:07:16;14.45;;;7.60;;
56081;SDS011;41957;52.060;5.138;2022-12-18T10:10:21;16.15;;;7.88;;
56081;SDS011;41957;52.060;5.138;2022-12-18T10:15:44;15.23;;;7.65;;
56081;SDS011;41957;52.060;5.138;2022-12-18T10:21:17;15.65;;;7.78;;
56081;SDS011;41957;52.060;5.138;2022-12-18T10:26:43;16.25;;;7.35;;
56081;SDS011;41957;52.060;5.138;2022-12-18T10:29:13;15.25;;;7.07;;
56081;SDS011;41957;52.060;5.138;2022-12-18T10:31:40;14.82;;;6.18;;
56081;SDS011;41957;52.060;5.138;2022-12-18T10:34:12;13.85;;;6.05;;
56081;SDS011;41957;52.060;5.138;2022-12-18T10:36:37;15.23;;;6.78;;
56081;SDS011;41957;52.060;5.138;2022-12-18T10:39:14;16.70;;;8.52;;
56081;SDS011;41957;52.060;5.138;2022-12-18T10:41:43;15.15;;;6.82;;
56081;SDS011;41957;52.060;5.138;2022-12-18T10:44:10;15.77;;;7.28;;
56081;SDS011;41957;52.060;5.138;2022-12-18T10:46:44;16.83;;;7.03;;
56081;SDS011;41957;52.060;5.138;2022-12-18T10:52:18;17.20;;;8.52;;
56081;SDS011;41957;52.060;5.138;2022-12-18T10:54:59;17.40;;;8.27;;
56081;SDS011;41957;52.060;5.138;2022-12-18T10:57:35;16.73;;;8.38;;
56081;SDS011;41957;52.060;5.138;2022-12-18T11:00:21;16.50;;;7.15;;
56081;SDS011;41957;52.060;5.138;2022-12-18T11:02:49;14.93;;;7.20;;
56081;SDS011;41957;52.060;5.138;2022-12-18T11:05:36;15.57;;;6.85;;
56081;SDS011;41957;52.060;5.138;2022-12-18T11:08:02;15.93;;;7.50;;
56081;SDS011;41957;52.060;5.138;2022-12-18T11:10:29;16.50;;;7.78;;
56081;SDS011;41957;52.060;5.138;2022-12-18T11:13:08;16.30;;;7.75;;
56081;SDS011;41957;52.060;5.138;2022-12-18T11:15:48;17.23;;;7.22;;
56081;SDS011;41957;52.060;5.138;2022-12-18T11:18:17;16.23;;;8.00;;
56081;SDS011;41957;52.060;5.138;2022-12-18T11:20:50;16.00;;;7.38;;
56081;SDS011;41957;52.060;5.138;2022-12-18T11:23:18;16.73;;;7.57;;
56081;SDS011;41957;52.060;5.138;2022-12-18T11:25:50;15.65;;;6.95;;
56081;SDS011;41957;52.060;5.138;2022-12-18T11:34:00;16.55;;;6.80;;
56081;SDS011;41957;52.060;5.138;2022-12-18T11:36:33;16.05;;;6.97;;
56081;SDS011;41957;52.060;5.138;2022-12-18T11:39:17;14.65;;;6.57;;
56081;SDS011;41957;52.060;5.138;2022-12-18T11:42:02;15.15;;;6.68;;
56081;SDS011;41957;52.060;5.138;2022-12-18T11:44:36;14.85;;;6.90;;
56081;SDS011;41957;52.060;5.138;2022-12-18T11:47:13;16.15;;;7.13;;
56081;SDS011;41957;52.060;5.138;2022-12-18T11:50:00;16.90;;;6.82;;
56081;SDS011;41957;52.060;5.138;2022-12-18T11:52:31;17.48;;;6.78;;
56081;SDS011;41957;52.060;5.138;2022-12-18T11:55:13;15.07;;;6.43;;
56081;SDS011;41957;52.060;5.138;2022-12-18T11:57:47;13.85;;;6.47;;
56081;SDS011;41957;52.060;5.138;2022-12-18T12:00:24;17.30;;;6.68;;
56081;SDS011;41957;52.060;5.138;2022-12-18T12:06:09;15.68;;;7.03;;
56081;SDS011;41957;52.060;5.138;2022-12-18T12:08:56;15.23;;;6.40;;
56081;SDS011;41957;52.060;5.138;2022-12-18T12:11:38;14.48;;;6.68;;
56081;SDS011;41957;52.060;5.138;2022-12-18T12:17:27;16.92;;;7.07;;
56081;SDS011;41957;52.060;5.138;2022-12-18T12:19:51;14.63;;;6.63;;
56081;SDS011;41957;52.060;5.138;2022-12-18T12:33:20;16.75;;;7.97;;
56081;SDS011;41957;52.060;5.138;2022-12-18T12:38:56;15.63;;;7.03;;
56081;SDS011;41957;52.060;5.138;2022-12-18T12:41:26;17.52;;;7.85;;
56081;SDS011;41957;52.060;5.138;2022-12-18T12:44:20;16.08;;;7.43;;
56081;SDS011;41957;52.060;5.138;2022-12-18T12:46:50;16.92;;;8.07;;
56081;SDS011;41957;52.060;5.138;2022-12-18T12:49:20;16.65;;;8.10;;
56081;SDS011;41957;52.060;5.138;2022-12-18T12:51:52;16.48;;;7.97;;
56081;SDS011;41957;52.060;5.138;2022-12-18T12:54:26;17.63;;;8.20;;
56081;SDS011;41957;52.060;5.138;2022-12-18T12:56:57;16.90;;;8.50;;
56081;SDS011;41957;52.060;5.138;2022-12-18T13:15:44;16.42;;;8.07;;
56081;SDS011;41957;52.060;5.138;2022-12-18T13:20:43;16.23;;;7.88;;
56081;SDS011;41957;52.060;5.138;2022-12-18T13:34:18;16.40;;;7.40;;
56081;SDS011;41957;52.060;5.138;2022-12-18T13:36:45;14.25;;;6.80;;
56081;SDS011;41957;52.060;5.138;2022-12-18T13:41:42;14.98;;;7.18;;
56081;SDS011;41957;52.060;5.138;2022-12-18T13:44:10;16.08;;;7.38;;
56081;SDS011;41957;52.060;5.138;2022-12-18T13:46:45;15.32;;;7.15;;
56081;SDS011;41957;52.060;5.138;2022-12-18T13:51:39;17.48;;;7.20;;
56081;SDS011;41957;52.060;5.138;2022-12-18T13:57:01;15.07;;;7.05;;
56081;SDS011;41957;52.060;5.138;2022-12-18T13:59:34;19.38;;;7.20;;
56081;SDS011;41957;52.060;5.138;2022-12-18T14:02:07;16.25;;;7.50;;
56081;SDS011;41957;52.060;5.138;2022-12-18T14:04:38;16.00;;;7.70;;
56081;SDS011;41957;52.060;5.138;2022-12-18T14:07:05;18.45;;;8.00;;
56081;SDS011;41957;52.060;5.138;2022-12-18T14:09:52;16.98;;;8.82;;
56081;SDS011;41957;52.060;5.138;2022-12-18T14:12:25;17.60;;;8.13;;
56081;SDS011;41957;52.060;5.138;2022-12-18T14:20:59;17.25;;;8.68;;
56081;SDS011;41957;52.060;5.138;2022-12-18T14:23:33;18.05;;;8.77;;
56081;SDS011;41957;52.060;5.138;2022-12-18T14:26:19;16.38;;;8.65;;
56081;SDS011;41957;52.060;5.138;2022-12-18T14:28:52;16.58;;;8.07;;
56081;SDS011;41957;52.060;5.138;2022-12-18T14:31:19;16.65;;;8.73;;
56081;SDS011;41957;52.060;5.138;2022-12-18T14:33:46;17.05;;;8.25;;
56081;SDS011;41957;52.060;5.138;2022-12-18T14:36:13;20.02;;;9.65;;
56081;SDS011;41957;52.060;5.138;2022-12-18T14:38:41;17.08;;;8.93;;
56081;SDS011;41957;52.060;5.138;2022-12-18T14:41:11;18.02;;;8.65;;
56081;SDS011;41957;52.060;5.138;2022-12-18T14:43:39;17.58;;;7.97;;
56081;SDS011;41957;52.060;5.138;2022-12-18T14:49:03;17.08;;;7.95;;
56081;SDS011;41957;52.060;5.138;2022-12-18T14:51:42;18.40;;;8.65;;
56081;SDS011;41957;52.060;5.138;2022-12-18T14:54:16;18.80;;;8.93;;
56081;SDS011;41957;52.060;5.138;2022-12-18T14:56:45;16.55;;;8.25;;
56081;SDS011;41957;52.060;5.138;2022-12-18T15:01:45;16.88;;;8.65;;
56081;SDS011;41957;52.060;5.138;2022-12-18T15:07:16;18.80;;;9.45;;
56081;SDS011;41957;52.060;5.138;2022-12-18T15:10:00;17.52;;;9.25;;
56081;SDS011;41957;52.060;5.138;2022-12-18T15:12:28;18.98;;;10.02;;
56081;SDS011;41957;52.060;5.138;2022-12-18T15:14:59;18.58;;;10.10;;
56081;SDS011;41957;52.060;5.138;2022-12-18T15:17:24;20.77;;;10.27;;
56081;SDS011;41957;52.060;5.138;2022-12-18T15:19:51;19.10;;;10.18;;
56081;SDS011;41957;52.060;5.138;2022-12-18T15:24:56;18.20;;;9.68;;
56081;SDS011;41957;52.060;5.138;2022-12-18T15:27:27;20.08;;;10.40;;
56081;SDS011;41957;52.060;5.138;2022-12-18T15:32:32;17.60;;;7.68;;
56081;SDS011;41957;52.060;5.138;2022-12-18T15:35:09;19.52;;;9.80;;
56081;SDS011;41957;52.060;5.138;2022-12-18T15:37:38;17.88;;;9.00;;
56081;SDS011;41957;52.060;5.138;2022-12-18T15:40:03;19.83;;;9.73;;
56081;SDS011;41957;52.060;5.138;2022-12-18T15:42:29;17.73;;;9.68;;
56081;SDS011;41957;52.060;5.138;2022-12-18T15:45:14;16.90;;;8.65;;
56081;SDS011;41957;52.060;5.138;2022-12-18T15:47:39;16.98;;;9.25;;
56081;SDS011;41957;52.060;5.138;2022-12-18T15:50:06;17.45;;;8.75;;
56081;SDS011;41957;52.060;5.138;2022-12-18T15:52:32;18.52;;;9.25;;
56081;SDS011;41957;52.060;5.138;2022-12-18T15:55:05;17.48;;;9.50;;
56081;SDS011;41957;52.060;5.138;2022-12-18T15:57:57;16.95;;;7.53;;
56081;SDS011;41957;52.060;5.138;2022-12-18T16:00:23;16.92;;;8.68;;
56081;SDS011;41957;52.060;5.138;2022-12-18T16:02:48;17.25;;;8.70;;
56081;SDS011;41957;52.060;5.138;2022-12-18T16:05:14;16.02;;;8.18;;
56081;SDS011;41957;52.060;5.138;2022-12-18T16:07:41;16.95;;;8.23;;
56081;SDS011;41957;52.060;5.138;2022-12-18T16:10:07;15.85;;;7.95;;
56081;SDS011;41957;52.060;5.138;2022-12-18T16:12:33;16.05;;;7.25;;
56081;SDS011;41957;52.060;5.138;2022-12-18T16:14:58;16.60;;;7.50;;
56081;SDS011;41957;52.060;5.138;2022-12-18T16:17:23;15.48;;;7.05;;
56081;SDS011;41957;52.060;5.138;2022-12-18T16:19:49;17.05;;;7.18;;
56081;SDS011;41957;52.060;5.138;2022-12-18T16:22:32;15.48;;;7.07;;
56081;SDS011;41957;52.060;5.138;2022-12-18T16:24:58;16.45;;;7.10;;
56081;SDS011;41957;52.060;5.138;2022-12-18T16:27:23;18.25;;;7.32;;
56081;SDS011;41957;52.060;5.138;2022-12-18T16:29:49;15.55;;;7.03;;
56081;SDS011;41957;52.060;5.138;2022-12-18T16:32:19;16.15;;;7.22;;
56081;SDS011;41957;52.060;5.138;2022-12-18T16:34:46;17.13;;;6.72;;
56081;SDS011;41957;52.060;5.138;2022-12-18T16:37:12;15.20;;;6.85;;
56081;SDS011;41957;52.060;5.138;2022-12-18T16:39:39;15.75;;;7.32;;
56081;SDS011;41957;52.060;5.138;2022-12-18T16:42:06;15.65;;;6.97;;
56081;SDS011;41957;52.060;5.138;2022-12-18T16:44:37;16.25;;;7.32;;
56081;SDS011;41957;52.060;5.138;2022-12-18T16:47:03;14.93;;;6.57;;
56081;SDS011;41957;52.060;5.138;2022-12-18T16:49:28;17.52;;;7.45;;
56081;SDS011;41957;52.060;5.138;2022-12-18T16:51:54;15.73;;;6.78;;
56081;SDS011;41957;52.060;5.138;2022-12-18T16:54:19;15.70;;;7.45;;
56081;SDS011;41957;52.060;5.138;2022-12-18T16:56:45;17.50;;;8.45;;